sensor_id;sensor_type;location;lat;lon;timestamp;temperature;humidity
65876;HTU21D;52657;51.128;5.938;2022-07-29T00:00:43;23.54;40.60
65876;HTU21D;52657;51.128;5.938;2022-07-29T00:03:12;23.45;40.65
65876;HTU21D;52657;51.128;5.938;2022-07-29T00:05:39;23.39;40.84
65876;HTU21D;52657;51.128;5.938;2022-07-29T00:08:06;23.32;41.04
65876;HTU21D;52657;51.128;5.938;2022-07-29T00:10:32;23.31;41.12
65876;HTU21D;52657;51.128;5.938;2022-07-29T00:12:58;23.29;41.08
65876;HTU21D;52657;51.128;5.938;2022-07-29T00:15:24;23.25;41.10
65876;HTU21D;52657;51.128;5.938;2022-07-29T00:17:50;23.26;40.97
65876;HTU21D;52657;51.128;5.938;2022-07-29T00:20:15;23.17;41.08
65876;HTU21D;52657;51.128;5.938;2022-07-29T00:22:41;23.12;41.31
65876;HTU21D;52657;51.128;5.938;2022-07-29T00:25:07;23.17;41.20
65876;HTU21D;52657;51.128;5.938;2022-07-29T00:27:35;23.18;41.20
65876;HTU21D;52657;51.128;5.938;2022-07-29T00:30:01;23.23;41.25
65876;HTU21D;52657;51.128;5.938;2022-07-29T00:32:27;23.23;41.39
65876;HTU21D;52657;51.128;5.938;2022-07-29T00:34:52;23.29;41.30
65876;HTU21D;52657;51.128;5.938;2022-07-29T00:37:37;23.35;41.35
65876;HTU21D;52657;51.128;5.938;2022-07-29T00:40:03;23.38;41.47
65876;HTU21D;52657;51.128;5.938;2022-07-29T00:42:28;23.37;42.01
65876;HTU21D;52657;51.128;5.938;2022-07-29T00:44:55;23.27;43.05
65876;HTU21D;52657;51.128;5.938;2022-07-29T00:47:20;23.17;43.85
65876;HTU21D;52657;51.128;5.938;2022-07-29T00:49:46;23.09;44.24
65876;HTU21D;52657;51.128;5.938;2022-07-29T00:52:12;23.10;44.39
65876;HTU21D;52657;51.128;5.938;2022-07-29T00:54:40;23.08;44.50
65876;HTU21D;52657;51.128;5.938;2022-07-29T00:57:06;23.03;44.66
65876;HTU21D;52657;51.128;5.938;2022-07-29T00:59:34;22.97;44.82
65876;HTU21D;52657;51.128;5.938;2022-07-29T01:02:01;22.93;45.10
65876;HTU21D;52657;51.128;5.938;2022-07-29T01:04:27;22.86;45.48
65876;HTU21D;52657;51.128;5.938;2022-07-29T01:06:55;22.69;45.96
65876;HTU21D;52657;51.128;5.938;2022-07-29T01:09:21;22.58;47.06
65876;HTU21D;52657;51.128;5.938;2022-07-29T01:11:49;22.51;47.76
65876;HTU21D;52657;51.128;5.938;2022-07-29T01:14:16;22.32;48.64
65876;HTU21D;52657;51.128;5.938;2022-07-29T01:16:52;22.17;49.27
65876;HTU21D;52657;51.128;5.938;2022-07-29T01:25:19;21.93;49.66
65876;HTU21D;52657;51.128;5.938;2022-07-29T01:30:54;21.96;49.74
65876;HTU21D;52657;51.128;5.938;2022-07-29T01:33:22;22.09;49.81
65876;HTU21D;52657;51.128;5.938;2022-07-29T01:36:14;22.20;49.51
65876;HTU21D;52657;51.128;5.938;2022-07-29T01:38:50;22.23;50.13
65876;HTU21D;52657;51.128;5.938;2022-07-29T01:41:20;22.18;51.01
65876;HTU21D;52657;51.128;5.938;2022-07-29T01:43:56;21.90;52.08
65876;HTU21D;52657;51.128;5.938;2022-07-29T01:46:49;21.64;54.10
65876;HTU21D;52657;51.128;5.938;2022-07-29T01:49:21;21.37;56.08
65876;HTU21D;52657;51.128;5.938;2022-07-29T01:51:59;21.02;56.87
65876;HTU21D;52657;51.128;5.938;2022-07-29T01:54:34;20.73;58.38
65876;HTU21D;52657;51.128;5.938;2022-07-29T01:57:03;20.56;59.58
65876;HTU21D;52657;51.128;5.938;2022-07-29T01:59:33;20.50;60.75
65876;HTU21D;52657;51.128;5.938;2022-07-29T02:02:03;20.55;61.36
65876;HTU21D;52657;51.128;5.938;2022-07-29T02:04:33;20.58;62.10
65876;HTU21D;52657;51.128;5.938;2022-07-29T02:07:03;20.62;62.70
65876;HTU21D;52657;51.128;5.938;2022-07-29T02:09:34;20.62;62.28
65876;HTU21D;52657;51.128;5.938;2022-07-29T02:12:03;20.50;62.31
65876;HTU21D;52657;51.128;5.938;2022-07-29T02:14:36;20.34;62.85
65876;HTU21D;52657;51.128;5.938;2022-07-29T02:17:03;20.25;63.56
65876;HTU21D;52657;51.128;5.938;2022-07-29T02:19:32;20.22;63.74
65876;HTU21D;52657;51.128;5.938;2022-07-29T02:21:59;20.21;63.71
65876;HTU21D;52657;51.128;5.938;2022-07-29T02:24:27;20.11;63.79
65876;HTU21D;52657;51.128;5.938;2022-07-29T02:26:56;20.02;64.40
65876;HTU21D;52657;51.128;5.938;2022-07-29T02:29:25;19.95;64.63
65876;HTU21D;52657;51.128;5.938;2022-07-29T02:31:55;19.83;65.02
65876;HTU21D;52657;51.128;5.938;2022-07-29T02:34:24;19.81;65.61
65876;HTU21D;52657;51.128;5.938;2022-07-29T02:36:52;19.76;66.04
65876;HTU21D;52657;51.128;5.938;2022-07-29T02:39:19;19.76;66.19
65876;HTU21D;52657;51.128;5.938;2022-07-29T02:42:00;19.74;66.31
65876;HTU21D;52657;51.128;5.938;2022-07-29T02:44:27;19.77;65.95
65876;HTU21D;52657;51.128;5.938;2022-07-29T02:52:31;19.72;66.16
65876;HTU21D;52657;51.128;5.938;2022-07-29T02:57:46;19.61;65.79
65876;HTU21D;52657;51.128;5.938;2022-07-29T03:00:15;19.61;65.43
65876;HTU21D;52657;51.128;5.938;2022-07-29T03:02:45;19.65;65.66
65876;HTU21D;52657;51.128;5.938;2022-07-29T03:05:15;19.66;65.79
65876;HTU21D;52657;51.128;5.938;2022-07-29T03:07:47;19.59;66.00
65876;HTU21D;52657;51.128;5.938;2022-07-29T03:10:14;19.47;66.01
65876;HTU21D;52657;51.128;5.938;2022-07-29T03:12:41;19.41;65.54
65876;HTU21D;52657;51.128;5.938;2022-07-29T03:15:09;19.33;65.34
65876;HTU21D;52657;51.128;5.938;2022-07-29T03:17:36;19.25;65.72
65876;HTU21D;52657;51.128;5.938;2022-07-29T03:20:03;19.30;65.72
65876;HTU21D;52657;51.128;5.938;2022-07-29T03:22:30;19.35;65.33
65876;HTU21D;52657;51.128;5.938;2022-07-29T03:24:56;19.36;65.38
65876;HTU21D;52657;51.128;5.938;2022-07-29T03:27:22;19.25;65.43
65876;HTU21D;52657;51.128;5.938;2022-07-29T03:29:47;19.23;66.03
65876;HTU21D;52657;51.128;5.938;2022-07-29T03:32:13;19.28;65.98
65876;HTU21D;52657;51.128;5.938;2022-07-29T03:34:39;19.30;66.09
65876;HTU21D;52657;51.128;5.938;2022-07-29T03:37:06;19.32;65.88
65876;HTU21D;52657;51.128;5.938;2022-07-29T03:39:37;19.33;65.98
65876;HTU21D;52657;51.128;5.938;2022-07-29T03:42:06;19.38;65.96
65876;HTU21D;52657;51.128;5.938;2022-07-29T03:44:34;19.45;66.06
65876;HTU21D;52657;51.128;5.938;2022-07-29T03:47:02;19.50;66.04
65876;HTU21D;52657;51.128;5.938;2022-07-29T03:49:31;19.55;65.83
65876;HTU21D;52657;51.128;5.938;2022-07-29T03:51:57;19.57;65.86
65876;HTU21D;52657;51.128;5.938;2022-07-29T03:54:23;19.57;65.78
65876;HTU21D;52657;51.128;5.938;2022-07-29T03:56:52;19.61;66.04
65876;HTU21D;52657;51.128;5.938;2022-07-29T03:59:21;19.69;65.97
65876;HTU21D;52657;51.128;5.938;2022-07-29T04:01:48;19.74;65.88
65876;HTU21D;52657;51.128;5.938;2022-07-29T04:04:16;19.80;65.99
65876;HTU21D;52657;51.128;5.938;2022-07-29T04:06:44;19.77;65.98
65876;HTU21D;52657;51.128;5.938;2022-07-29T04:09:11;19.71;66.44
65876;HTU21D;52657;51.128;5.938;2022-07-29T04:11:39;19.67;66.22
65876;HTU21D;52657;51.128;5.938;2022-07-29T04:14:05;19.65;66.42
65876;HTU21D;52657;51.128;5.938;2022-07-29T04:16:32;19.63;66.32
65876;HTU21D;52657;51.128;5.938;2022-07-29T04:18:58;19.59;66.68
65876;HTU21D;52657;51.128;5.938;2022-07-29T04:21:24;19.65;66.49
65876;HTU21D;52657;51.128;5.938;2022-07-29T04:23:50;19.67;66.55
65876;HTU21D;52657;51.128;5.938;2022-07-29T04:26:17;19.69;66.58
65876;HTU21D;52657;51.128;5.938;2022-07-29T04:28:43;19.75;66.32
65876;HTU21D;52657;51.128;5.938;2022-07-29T04:31:10;19.72;66.23
65876;HTU21D;52657;51.128;5.938;2022-07-29T04:33:35;19.75;66.43
65876;HTU21D;52657;51.128;5.938;2022-07-29T04:36:01;19.72;67.23
65876;HTU21D;52657;51.128;5.938;2022-07-29T04:38:27;19.75;67.30
65876;HTU21D;52657;51.128;5.938;2022-07-29T04:40:52;19.75;67.33
65876;HTU21D;52657;51.128;5.938;2022-07-29T04:43:18;19.84;67.26
65876;HTU21D;52657;51.128;5.938;2022-07-29T04:45:44;19.91;67.31
65876;HTU21D;52657;51.128;5.938;2022-07-29T04:48:10;20.02;67.46
65876;HTU21D;52657;51.128;5.938;2022-07-29T04:50:40;20.11;67.39
65876;HTU21D;52657;51.128;5.938;2022-07-29T04:53:06;20.17;67.36
65876;HTU21D;52657;51.128;5.938;2022-07-29T04:55:33;20.25;67.33
65876;HTU21D;52657;51.128;5.938;2022-07-29T04:57:59;20.27;67.32
65876;HTU21D;52657;51.128;5.938;2022-07-29T05:00:24;20.29;67.32
65876;HTU21D;52657;51.128;5.938;2022-07-29T05:02:50;20.22;67.46
65876;HTU21D;52657;51.128;5.938;2022-07-29T05:05:16;20.15;67.71
65876;HTU21D;52657;51.128;5.938;2022-07-29T05:07:42;20.11;67.88
65876;HTU21D;52657;51.128;5.938;2022-07-29T05:10:09;20.14;67.96
65876;HTU21D;52657;51.128;5.938;2022-07-29T05:12:35;20.07;68.13
65876;HTU21D;52657;51.128;5.938;2022-07-29T05:15:00;20.06;68.84
65876;HTU21D;52657;51.128;5.938;2022-07-29T05:17:26;20.10;69.07
65876;HTU21D;52657;51.128;5.938;2022-07-29T05:19:52;20.10;69.23
65876;HTU21D;52657;51.128;5.938;2022-07-29T05:22:19;20.12;68.81
65876;HTU21D;52657;51.128;5.938;2022-07-29T05:24:45;20.12;68.81
65876;HTU21D;52657;51.128;5.938;2022-07-29T05:27:11;20.11;68.97
65876;HTU21D;52657;51.128;5.938;2022-07-29T05:29:37;20.07;68.87
65876;HTU21D;52657;51.128;5.938;2022-07-29T05:32:03;20.03;68.91
65876;HTU21D;52657;51.128;5.938;2022-07-29T05:34:30;20.04;68.94
65876;HTU21D;52657;51.128;5.938;2022-07-29T05:36:56;20.01;69.42
65876;HTU21D;52657;51.128;5.938;2022-07-29T05:39:23;19.98;69.78
65876;HTU21D;52657;51.128;5.938;2022-07-29T05:41:49;19.95;69.60
65876;HTU21D;52657;51.128;5.938;2022-07-29T05:44:14;19.89;69.42
65876;HTU21D;52657;51.128;5.938;2022-07-29T05:46:41;19.84;69.37
65876;HTU21D;52657;51.128;5.938;2022-07-29T05:49:06;19.77;69.58
65876;HTU21D;52657;51.128;5.938;2022-07-29T05:51:33;19.80;69.45
65876;HTU21D;52657;51.128;5.938;2022-07-29T05:53:59;19.84;69.39
65876;HTU21D;52657;51.128;5.938;2022-07-29T05:56:25;19.82;69.03
65876;HTU21D;52657;51.128;5.938;2022-07-29T05:58:51;19.86;69.31
65876;HTU21D;52657;51.128;5.938;2022-07-29T06:01:17;19.81;69.03
65876;HTU21D;52657;51.128;5.938;2022-07-29T06:03:42;19.81;69.28
65876;HTU21D;52657;51.128;5.938;2022-07-29T06:06:09;19.89;69.57
65876;HTU21D;52657;51.128;5.938;2022-07-29T06:08:35;20.02;69.10
65876;HTU21D;52657;51.128;5.938;2022-07-29T06:11:02;20.15;69.32
65876;HTU21D;52657;51.128;5.938;2022-07-29T06:13:29;20.27;68.34
65876;HTU21D;52657;51.128;5.938;2022-07-29T06:15:55;20.26;67.72
65876;HTU21D;52657;51.128;5.938;2022-07-29T06:18:21;20.29;68.07
65876;HTU21D;52657;51.128;5.938;2022-07-29T06:20:53;20.30;67.78
65876;HTU21D;52657;51.128;5.938;2022-07-29T06:23:19;20.30;67.79
65876;HTU21D;52657;51.128;5.938;2022-07-29T06:25:46;20.34;67.77
65876;HTU21D;52657;51.128;5.938;2022-07-29T06:28:11;20.34;67.73
65876;HTU21D;52657;51.128;5.938;2022-07-29T06:30:38;20.40;67.97
65876;HTU21D;52657;51.128;5.938;2022-07-29T06:33:04;20.45;68.17
65876;HTU21D;52657;51.128;5.938;2022-07-29T06:35:30;20.46;67.53
65876;HTU21D;52657;51.128;5.938;2022-07-29T06:37:56;20.54;67.43
65876;HTU21D;52657;51.128;5.938;2022-07-29T06:40:21;20.58;67.03
65876;HTU21D;52657;51.128;5.938;2022-07-29T06:43:05;20.61;66.75
65876;HTU21D;52657;51.128;5.938;2022-07-29T06:45:34;20.63;66.13
65876;HTU21D;52657;51.128;5.938;2022-07-29T06:48:00;20.64;66.36
65876;HTU21D;52657;51.128;5.938;2022-07-29T06:50:26;20.65;66.11
65876;HTU21D;52657;51.128;5.938;2022-07-29T06:52:52;20.71;66.02
65876;HTU21D;52657;51.128;5.938;2022-07-29T06:55:17;20.68;66.59
65876;HTU21D;52657;51.128;5.938;2022-07-29T06:57:45;20.69;66.99
65876;HTU21D;52657;51.128;5.938;2022-07-29T07:00:12;20.64;67.60
65876;HTU21D;52657;51.128;5.938;2022-07-29T07:02:38;20.68;67.52
65876;HTU21D;52657;51.128;5.938;2022-07-29T07:05:04;20.69;67.55
65876;HTU21D;52657;51.128;5.938;2022-07-29T07:07:31;20.71;67.72
65876;HTU21D;52657;51.128;5.938;2022-07-29T07:09:57;20.70;67.78
65876;HTU21D;52657;51.128;5.938;2022-07-29T07:12:23;20.61;67.73
65876;HTU21D;52657;51.128;5.938;2022-07-29T07:14:48;20.60;68.35
65876;HTU21D;52657;51.128;5.938;2022-07-29T07:17:14;20.62;68.23
65876;HTU21D;52657;51.128;5.938;2022-07-29T07:19:40;20.70;68.10
65876;HTU21D;52657;51.128;5.938;2022-07-29T07:22:05;20.78;67.83
65876;HTU21D;52657;51.128;5.938;2022-07-29T07:24:31;20.90;67.83
65876;HTU21D;52657;51.128;5.938;2022-07-29T07:26:57;20.99;67.43
65876;HTU21D;52657;51.128;5.938;2022-07-29T07:29:23;21.08;67.18
65876;HTU21D;52657;51.128;5.938;2022-07-29T07:31:49;21.15;66.94
65876;HTU21D;52657;51.128;5.938;2022-07-29T07:34:14;21.21;66.29
65876;HTU21D;52657;51.128;5.938;2022-07-29T07:36:40;21.30;66.27
65876;HTU21D;52657;51.128;5.938;2022-07-29T07:39:06;21.40;66.49
65876;HTU21D;52657;51.128;5.938;2022-07-29T07:41:32;21.42;65.88
65876;HTU21D;52657;51.128;5.938;2022-07-29T07:43:58;21.46;66.46
65876;HTU21D;52657;51.128;5.938;2022-07-29T07:46:24;21.50;64.80
65876;HTU21D;52657;51.128;5.938;2022-07-29T07:48:50;21.45;64.98
65876;HTU21D;52657;51.128;5.938;2022-07-29T07:51:18;21.51;64.80
65876;HTU21D;52657;51.128;5.938;2022-07-29T07:53:43;21.57;64.74
65876;HTU21D;52657;51.128;5.938;2022-07-29T07:56:10;21.70;64.35
65876;HTU21D;52657;51.128;5.938;2022-07-29T07:58:35;21.89;63.85
65876;HTU21D;52657;51.128;5.938;2022-07-29T08:01:02;22.05;63.27
65876;HTU21D;52657;51.128;5.938;2022-07-29T08:03:28;22.42;63.48
65876;HTU21D;52657;51.128;5.938;2022-07-29T08:05:54;22.76;62.07
65876;HTU21D;52657;51.128;5.938;2022-07-29T08:08:20;23.09;60.22
65876;HTU21D;52657;51.128;5.938;2022-07-29T08:10:46;23.35;59.07
65876;HTU21D;52657;51.128;5.938;2022-07-29T08:13:20;23.46;56.71
65876;HTU21D;52657;51.128;5.938;2022-07-29T08:15:46;23.54;56.32
65876;HTU21D;52657;51.128;5.938;2022-07-29T08:18:13;23.88;56.20
65876;HTU21D;52657;51.128;5.938;2022-07-29T08:20:39;24.34;54.46
65876;HTU21D;52657;51.128;5.938;2022-07-29T08:23:08;24.80;55.25
65876;HTU21D;52657;51.128;5.938;2022-07-29T08:25:37;25.39;55.18
65876;HTU21D;52657;51.128;5.938;2022-07-29T08:28:04;25.95;53.59
65876;HTU21D;52657;51.128;5.938;2022-07-29T08:30:30;26.12;51.21
65876;HTU21D;52657;51.128;5.938;2022-07-29T08:32:58;26.05;50.98
65876;HTU21D;52657;51.128;5.938;2022-07-29T08:35:24;25.84;50.98
65876;HTU21D;52657;51.128;5.938;2022-07-29T08:37:50;25.64;50.44
65876;HTU21D;52657;51.128;5.938;2022-07-29T08:40:16;25.58;50.93
65876;HTU21D;52657;51.128;5.938;2022-07-29T08:42:43;25.74;51.71
65876;HTU21D;52657;51.128;5.938;2022-07-29T08:45:08;25.52;52.85
65876;HTU21D;52657;51.128;5.938;2022-07-29T08:47:35;25.46;53.09
65876;HTU21D;52657;51.128;5.938;2022-07-29T08:50:09;25.43;54.05
65876;HTU21D;52657;51.128;5.938;2022-07-29T08:52:40;25.25;53.91
65876;HTU21D;52657;51.128;5.938;2022-07-29T08:55:09;25.14;53.49
65876;HTU21D;52657;51.128;5.938;2022-07-29T08:57:35;25.09;53.79
65876;HTU21D;52657;51.128;5.938;2022-07-29T09:00:05;25.14;54.13
65876;HTU21D;52657;51.128;5.938;2022-07-29T09:02:39;25.30;54.47
65876;HTU21D;52657;51.128;5.938;2022-07-29T09:05:08;25.51;53.56
65876;HTU21D;52657;51.128;5.938;2022-07-29T09:07:35;25.71;53.43
65876;HTU21D;52657;51.128;5.938;2022-07-29T09:10:02;25.74;53.29
65876;HTU21D;52657;51.128;5.938;2022-07-29T09:12:30;25.88;51.87
65876;HTU21D;52657;51.128;5.938;2022-07-29T09:14:56;26.08;51.24
65876;HTU21D;52657;51.128;5.938;2022-07-29T09:17:41;26.11;50.71
65876;HTU21D;52657;51.128;5.938;2022-07-29T09:20:13;26.22;49.81
65876;HTU21D;52657;51.128;5.938;2022-07-29T09:22:39;26.13;49.27
65876;HTU21D;52657;51.128;5.938;2022-07-29T09:25:05;26.15;50.44
65876;HTU21D;52657;51.128;5.938;2022-07-29T09:27:31;26.30;49.35
65876;HTU21D;52657;51.128;5.938;2022-07-29T09:30:07;26.31;49.08
65876;HTU21D;52657;51.128;5.938;2022-07-29T09:32:58;26.39;48.62
65876;HTU21D;52657;51.128;5.938;2022-07-29T09:35:27;26.22;48.37
65876;HTU21D;52657;51.128;5.938;2022-07-29T09:37:53;25.92;48.38
65876;HTU21D;52657;51.128;5.938;2022-07-29T09:40:22;25.76;47.86
65876;HTU21D;52657;51.128;5.938;2022-07-29T09:42:49;25.65;48.72
65876;HTU21D;52657;51.128;5.938;2022-07-29T09:45:32;25.57;50.40
65876;HTU21D;52657;51.128;5.938;2022-07-29T09:48:16;25.51;48.86
65876;HTU21D;52657;51.128;5.938;2022-07-29T09:50:44;25.33;48.70
65876;HTU21D;52657;51.128;5.938;2022-07-29T09:53:12;25.20;49.94
65876;HTU21D;52657;51.128;5.938;2022-07-29T09:55:55;25.23;49.53
65876;HTU21D;52657;51.128;5.938;2022-07-29T09:58:22;25.31;50.72
65876;HTU21D;52657;51.128;5.938;2022-07-29T10:00:52;25.53;49.96
65876;HTU21D;52657;51.128;5.938;2022-07-29T10:03:19;25.50;49.47
65876;HTU21D;52657;51.128;5.938;2022-07-29T10:05:45;25.40;48.95
65876;HTU21D;52657;51.128;5.938;2022-07-29T10:08:12;25.31;48.73
65876;HTU21D;52657;51.128;5.938;2022-07-29T10:10:41;25.35;48.47
65876;HTU21D;52657;51.128;5.938;2022-07-29T10:13:18;25.47;47.95
65876;HTU21D;52657;51.128;5.938;2022-07-29T10:15:44;25.43;47.54
65876;HTU21D;52657;51.128;5.938;2022-07-29T10:18:12;25.34;48.53
65876;HTU21D;52657;51.128;5.938;2022-07-29T10:20:39;25.42;48.02
65876;HTU21D;52657;51.128;5.938;2022-07-29T10:23:05;25.56;47.70
65876;HTU21D;52657;51.128;5.938;2022-07-29T10:25:32;25.73;47.70
65876;HTU21D;52657;51.128;5.938;2022-07-29T10:27:58;25.94;46.96
65876;HTU21D;52657;51.128;5.938;2022-07-29T10:30:25;26.06;46.88
65876;HTU21D;52657;51.128;5.938;2022-07-29T10:44:25;26.69;45.42
65876;HTU21D;52657;51.128;5.938;2022-07-29T10:46:52;26.55;45.74
65876;HTU21D;52657;51.128;5.938;2022-07-29T10:54:17;26.69;45.77
65876;HTU21D;52657;51.128;5.938;2022-07-29T10:56:43;26.75;45.61
65876;HTU21D;52657;51.128;5.938;2022-07-29T11:01:53;26.83;45.50
65876;HTU21D;52657;51.128;5.938;2022-07-29T11:04:58;26.90;45.19
65876;HTU21D;52657;51.128;5.938;2022-07-29T11:07:25;27.01;45.32
65876;HTU21D;52657;51.128;5.938;2022-07-29T11:15:13;27.09;45.31
65876;HTU21D;52657;51.128;5.938;2022-07-29T11:23:30;27.21;44.91
65876;HTU21D;52657;51.128;5.938;2022-07-29T11:26:20;27.29;45.09
65876;HTU21D;52657;51.128;5.938;2022-07-29T11:34:28;27.43;44.75
65876;HTU21D;52657;51.128;5.938;2022-07-29T11:45:12;27.46;44.48
65876;HTU21D;52657;51.128;5.938;2022-07-29T11:50:26;27.43;44.68
65876;HTU21D;52657;51.128;5.938;2022-07-29T11:52:53;27.30;45.38
65876;HTU21D;52657;51.128;5.938;2022-07-29T11:55:21;27.28;45.64
65876;HTU21D;52657;51.128;5.938;2022-07-29T11:57:58;27.23;45.66
65876;HTU21D;52657;51.128;5.938;2022-07-29T12:00:29;27.37;45.67
65876;HTU21D;52657;51.128;5.938;2022-07-29T12:02:56;27.44;45.62
65876;HTU21D;52657;51.128;5.938;2022-07-29T12:10:33;27.52;45.62
65876;HTU21D;52657;51.128;5.938;2022-07-29T12:12:59;27.58;45.42
65876;HTU21D;52657;51.128;5.938;2022-07-29T12:15:25;27.61;45.03
65876;HTU21D;52657;51.128;5.938;2022-07-29T12:17:52;27.70;45.41
65876;HTU21D;52657;51.128;5.938;2022-07-29T12:20:29;27.79;44.99
65876;HTU21D;52657;51.128;5.938;2022-07-29T12:22:56;27.88;45.23
65876;HTU21D;52657;51.128;5.938;2022-07-29T12:25:23;28.05;44.84
65876;HTU21D;52657;51.128;5.938;2022-07-29T12:28:04;28.14;44.71
65876;HTU21D;52657;51.128;5.938;2022-07-29T12:30:48;28.20;45.19
65876;HTU21D;52657;51.128;5.938;2022-07-29T12:33:28;28.40;44.34
65876;HTU21D;52657;51.128;5.938;2022-07-29T12:36:00;28.48;44.13
65876;HTU21D;52657;51.128;5.938;2022-07-29T12:38:26;28.50;44.07
65876;HTU21D;52657;51.128;5.938;2022-07-29T12:40:54;28.41;44.13
65876;HTU21D;52657;51.128;5.938;2022-07-29T12:43:24;28.35;44.25
65876;HTU21D;52657;51.128;5.938;2022-07-29T12:45:52;28.28;43.53
65876;HTU21D;52657;51.128;5.938;2022-07-29T12:48:35;28.14;43.45
65876;HTU21D;52657;51.128;5.938;2022-07-29T12:51:03;28.23;43.93
65876;HTU21D;52657;51.128;5.938;2022-07-29T12:53:30;28.28;42.65
65876;HTU21D;52657;51.128;5.938;2022-07-29T12:55:57;28.32;42.55
65876;HTU21D;52657;51.128;5.938;2022-07-29T12:58:39;28.53;42.55
65876;HTU21D;52657;51.128;5.938;2022-07-29T13:01:14;28.71;41.93
65876;HTU21D;52657;51.128;5.938;2022-07-29T13:03:49;28.77;40.76
65876;HTU21D;52657;51.128;5.938;2022-07-29T13:06:41;28.71;41.76
65876;HTU21D;52657;51.128;5.938;2022-07-29T13:09:15;28.62;41.81
65876;HTU21D;52657;51.128;5.938;2022-07-29T13:11:49;28.72;42.33
65876;HTU21D;52657;51.128;5.938;2022-07-29T13:14:33;28.82;41.80
65876;HTU21D;52657;51.128;5.938;2022-07-29T13:19:40;28.73;41.54
65876;HTU21D;52657;51.128;5.938;2022-07-29T13:22:07;28.76;41.44
65876;HTU21D;52657;51.128;5.938;2022-07-29T13:24:44;28.87;41.74
65876;HTU21D;52657;51.128;5.938;2022-07-29T13:27:10;29.06;41.64
65876;HTU21D;52657;51.128;5.938;2022-07-29T13:29:36;29.27;40.66
65876;HTU21D;52657;51.128;5.938;2022-07-29T13:32:05;29.16;40.42
65876;HTU21D;52657;51.128;5.938;2022-07-29T13:34:31;29.17;41.05
65876;HTU21D;52657;51.128;5.938;2022-07-29T13:36:57;29.27;41.26
65876;HTU21D;52657;51.128;5.938;2022-07-29T13:39:23;29.38;40.75
65876;HTU21D;52657;51.128;5.938;2022-07-29T13:41:48;29.41;40.39
65876;HTU21D;52657;51.128;5.938;2022-07-29T13:44:14;29.50;40.50
65876;HTU21D;52657;51.128;5.938;2022-07-29T13:46:40;29.59;40.13
65876;HTU21D;52657;51.128;5.938;2022-07-29T13:49:06;29.72;40.17
65876;HTU21D;52657;51.128;5.938;2022-07-29T13:51:32;29.82;40.03
65876;HTU21D;52657;51.128;5.938;2022-07-29T13:53:57;29.87;39.18
65876;HTU21D;52657;51.128;5.938;2022-07-29T13:56:23;29.70;38.72
65876;HTU21D;52657;51.128;5.938;2022-07-29T13:58:49;29.45;38.83
65876;HTU21D;52657;51.128;5.938;2022-07-29T14:01:14;29.32;39.63
65876;HTU21D;52657;51.128;5.938;2022-07-29T14:03:40;29.35;38.96
65876;HTU21D;52657;51.128;5.938;2022-07-29T14:06:08;29.39;39.30
65876;HTU21D;52657;51.128;5.938;2022-07-29T14:08:34;29.46;39.40
65876;HTU21D;52657;51.128;5.938;2022-07-29T14:11:00;29.53;39.36
65876;HTU21D;52657;51.128;5.938;2022-07-29T14:13:26;29.60;38.99
65876;HTU21D;52657;51.128;5.938;2022-07-29T14:15:52;29.62;38.66
65876;HTU21D;52657;51.128;5.938;2022-07-29T14:18:17;29.43;39.01
65876;HTU21D;52657;51.128;5.938;2022-07-29T14:20:43;29.31;39.01
65876;HTU21D;52657;51.128;5.938;2022-07-29T14:23:09;29.27;38.39
65876;HTU21D;52657;51.128;5.938;2022-07-29T14:25:35;29.42;37.90
65876;HTU21D;52657;51.128;5.938;2022-07-29T14:28:00;29.71;36.64
65876;HTU21D;52657;51.128;5.938;2022-07-29T14:30:26;29.67;36.76
65876;HTU21D;52657;51.128;5.938;2022-07-29T14:32:52;29.71;36.08
65876;HTU21D;52657;51.128;5.938;2022-07-29T14:35:18;29.73;35.77
65876;HTU21D;52657;51.128;5.938;2022-07-29T14:37:44;29.88;36.50
65876;HTU21D;52657;51.128;5.938;2022-07-29T14:40:11;30.05;35.99
65876;HTU21D;52657;51.128;5.938;2022-07-29T14:42:37;30.15;35.64
65876;HTU21D;52657;51.128;5.938;2022-07-29T14:45:08;30.13;36.43
65876;HTU21D;52657;51.128;5.938;2022-07-29T14:47:34;30.28;36.27
65876;HTU21D;52657;51.128;5.938;2022-07-29T14:50:00;30.35;35.82
65876;HTU21D;52657;51.128;5.938;2022-07-29T14:52:26;30.36;35.02
65876;HTU21D;52657;51.128;5.938;2022-07-29T14:54:52;30.37;34.51
65876;HTU21D;52657;51.128;5.938;2022-07-29T14:57:17;30.32;35.51
65876;HTU21D;52657;51.128;5.938;2022-07-29T14:59:43;30.37;35.89
65876;HTU21D;52657;51.128;5.938;2022-07-29T15:02:09;30.31;35.96
65876;HTU21D;52657;51.128;5.938;2022-07-29T15:04:34;30.17;35.31
65876;HTU21D;52657;51.128;5.938;2022-07-29T15:07:00;30.00;35.27
65876;HTU21D;52657;51.128;5.938;2022-07-29T15:09:26;29.88;36.24
65876;HTU21D;52657;51.128;5.938;2022-07-29T15:11:52;30.05;36.56
65876;HTU21D;52657;51.128;5.938;2022-07-29T15:14:17;30.21;35.98
65876;HTU21D;52657;51.128;5.938;2022-07-29T15:16:43;30.30;35.76
65876;HTU21D;52657;51.128;5.938;2022-07-29T15:19:09;30.36;35.08
65876;HTU21D;52657;51.128;5.938;2022-07-29T15:21:35;30.33;35.20
65876;HTU21D;52657;51.128;5.938;2022-07-29T15:24:00;30.35;34.99
65876;HTU21D;52657;51.128;5.938;2022-07-29T15:26:26;30.20;35.06
65876;HTU21D;52657;51.128;5.938;2022-07-29T15:28:52;30.22;35.46
65876;HTU21D;52657;51.128;5.938;2022-07-29T15:31:18;30.31;35.68
65876;HTU21D;52657;51.128;5.938;2022-07-29T15:33:46;30.36;35.36
65876;HTU21D;52657;51.128;5.938;2022-07-29T15:36:12;30.22;35.31
65876;HTU21D;52657;51.128;5.938;2022-07-29T15:38:38;30.10;35.79
65876;HTU21D;52657;51.128;5.938;2022-07-29T15:41:06;30.16;36.16
65876;HTU21D;52657;51.128;5.938;2022-07-29T15:43:32;30.21;35.31
65876;HTU21D;52657;51.128;5.938;2022-07-29T15:46:00;30.15;35.57
65876;HTU21D;52657;51.128;5.938;2022-07-29T15:48:45;30.17;35.59
65876;HTU21D;52657;51.128;5.938;2022-07-29T15:51:11;30.22;35.29
65876;HTU21D;52657;51.128;5.938;2022-07-29T15:53:37;30.19;34.35
65876;HTU21D;52657;51.128;5.938;2022-07-29T15:56:03;30.02;34.89
65876;HTU21D;52657;51.128;5.938;2022-07-29T15:58:31;29.87;34.87
65876;HTU21D;52657;51.128;5.938;2022-07-29T16:00:57;29.76;35.02
65876;HTU21D;52657;51.128;5.938;2022-07-29T16:03:23;29.78;34.87
65876;HTU21D;52657;51.128;5.938;2022-07-29T16:05:49;29.78;34.84
65876;HTU21D;52657;51.128;5.938;2022-07-29T16:08:14;29.68;35.18
65876;HTU21D;52657;51.128;5.938;2022-07-29T16:10:40;29.59;35.19
65876;HTU21D;52657;51.128;5.938;2022-07-29T16:13:06;29.56;35.28
65876;HTU21D;52657;51.128;5.938;2022-07-29T16:15:32;29.51;35.30
65876;HTU21D;52657;51.128;5.938;2022-07-29T16:17:58;29.50;35.60
65876;HTU21D;52657;51.128;5.938;2022-07-29T16:20:24;29.58;35.47
65876;HTU21D;52657;51.128;5.938;2022-07-29T16:22:49;29.65;35.65
65876;HTU21D;52657;51.128;5.938;2022-07-29T16:25:15;29.74;34.85
65876;HTU21D;52657;51.128;5.938;2022-07-29T16:27:41;29.82;34.67
65876;HTU21D;52657;51.128;5.938;2022-07-29T16:30:07;29.75;34.70
65876;HTU21D;52657;51.128;5.938;2022-07-29T16:32:34;29.75;34.17